Time;durP1;ratioP1;P1;durP2;ratioP2;P2;SDS_P1;SDS_P2;PMS_P1;PMS_P2;Temp;Humidity;BMP_temperature;BMP_pressure;BME280_temperature;BME280_humidity;BME280_pressure;Samples;Min_cycle;Max_cycle;Signal;HPM_P1;HPM_P2
2020/12/22 00:00:10;;;;;;;31.33;25.52;;;11.60;64.90;;;;;;5053977;28;20122;-69
2020/12/22 00:02:46;;;;;;;34.80;26.67;;;11.60;64.80;;;;;;5053763;28;20029;-71
2020/12/22 00:05:12;;;;;;;36.38;27.08;;;11.50;64.80;;;;;;5053806;28;20359;-69
2020/12/22 00:07:39;;;;;;;37.13;26.25;;;11.40;64.90;;;;;;5053472;28;20056;-69
2020/12/22 00:10:06;;;;;;;35.17;26.88;;;11.30;65.40;;;;;;5053582;28;20067;-69
2020/12/22 00:12:32;;;;;;;37.35;27.60;;;11.20;65.30;;;;;;5053728;28;20059;-70
2020/12/22 00:14:59;;;;;;;36.25;27.73;;;11.10;65.70;;;;;;5053830;28;20025;-70
2020/12/22 00:17:24;;;;;;;34.65;27.80;;;11.00;66.10;;;;;;5053518;28;20048;-71
2020/12/22 00:19:50;;;;;;;42.13;27.65;;;10.90;66.20;;;;;;5053509;28;20119;-69
2020/12/22 00:22:16;;;;;;;33.75;27.50;;;10.80;66.70;;;;;;5053613;28;20128;-67
2020/12/22 00:24:42;;;;;;;33.72;26.60;;;10.90;66.60;;;;;;5053862;28;20025;-72
2020/12/22 00:27:08;;;;;;;38.05;28.15;;;10.90;66.40;;;;;;5053708;28;20169;-69
2020/12/22 00:29:33;;;;;;;32.35;26.15;;;10.90;66.00;;;;;;5053232;28;20025;-71
2020/12/22 00:32:02;;;;;;;37.20;27.17;;;10.90;66.10;;;;;;5053135;28;20037;-70
2020/12/22 00:34:29;;;;;;;33.05;26.33;;;10.80;66.30;;;;;;5053313;28;20040;-70
2020/12/22 00:36:55;;;;;;;32.17;25.73;;;10.90;66.60;;;;;;5053547;28;20039;-68
2020/12/22 00:39:20;;;;;;;35.75;27.02;;;11.00;66.30;;;;;;5053223;28;20017;-70
2020/12/22 00:41:55;;;;;;;36.40;27.75;;;11.00;65.70;;;;;;5053424;28;20025;-72
2020/12/22 00:44:21;;;;;;;33.33;26.55;;;11.00;66.60;;;;;;5053427;28;20028;-71
2020/12/22 00:46:47;;;;;;;35.30;26.70;;;11.00;66.10;;;;;;5053201;28;20029;-70
2020/12/22 00:49:13;;;;;;;37.85;25.88;;;11.00;65.90;;;;;;5035351;28;20025;-70
2020/12/22 00:51:39;;;;;;;30.55;24.55;;;10.90;65.90;;;;;;5053261;28;20060;-71
2020/12/22 00:54:04;;;;;;;32.40;24.50;;;10.90;65.90;;;;;;5052910;28;20492;-70
2020/12/22 00:56:30;;;;;;;32.17;24.77;;;10.80;65.60;;;;;;5053170;28;20127;-64
2020/12/22 00:58:56;;;;;;;32.95;25.45;;;10.90;66.40;;;;;;5052766;28;20033;-70
2020/12/22 01:01:22;;;;;;;31.75;23.95;;;11.00;66.10;;;;;;5052616;28;20056;-71
2020/12/22 01:03:47;;;;;;;31.05;24.90;;;10.90;65.80;;;;;;5053088;28;20029;-72
2020/12/22 01:06:15;;;;;;;30.00;24.67;;;11.00;65.90;;;;;;5053174;28;20100;-69
2020/12/22 01:08:42;;;;;;;32.28;24.50;;;11.00;65.90;;;;;;5052824;28;20469;-68
2020/12/22 01:11:07;;;;;;;31.10;24.55;;;10.90;65.60;;;;;;5067534;22;20053;-78
2020/12/22 01:13:33;;;;;;;31.75;23.83;;;10.90;66.00;;;;;;5053109;28;20542;-77
2020/12/22 01:15:59;;;;;;;28.38;23.00;;;10.90;65.90;;;;;;5053072;28;20509;-79
2020/12/22 01:18:24;;;;;;;30.60;24.00;;;11.00;65.80;;;;;;5053126;28;20037;-78
2020/12/22 01:20:50;;;;;;;30.83;24.38;;;11.00;65.80;;;;;;5034844;28;20028;-77
2020/12/22 01:23:18;;;;;;;29.95;24.42;;;11.00;65.50;;;;;;5053084;28;20474;-78
2020/12/22 01:25:44;;;;;;;30.80;23.60;;;11.00;65.40;;;;;;5052975;28;20029;-75
2020/12/22 01:28:09;;;;;;;29.48;23.35;;;10.90;65.60;;;;;;5052981;28;20029;-77
2020/12/22 01:30:38;;;;;;;29.33;23.45;;;10.90;65.60;;;;;;5052811;28;20099;-76
2020/12/22 01:33:05;;;;;;;31.13;22.67;;;10.90;65.70;;;;;;5053155;28;20029;-78
2020/12/22 01:35:31;;;;;;;31.63;24.60;;;10.80;65.70;;;;;;5053314;28;20029;-76
2020/12/22 01:37:57;;;;;;;30.75;23.90;;;10.80;65.80;;;;;;5053371;28;20056;-76
2020/12/22 01:40:22;;;;;;;31.02;23.45;;;10.80;66.10;;;;;;5035550;28;20053;-76
2020/12/22 01:42:49;;;;;;;33.60;24.58;;;10.80;67.00;;;;;;5053651;28;20478;-77
2020/12/22 01:45:15;;;;;;;31.10;22.65;;;10.80;66.00;;;;;;5055685;28;20037;-74
2020/12/22 01:47:48;;;;;;;30.42;23.20;;;10.80;66.10;;;;;;5056845;28;20108;-76
2020/12/22 01:50:16;;;;;;;33.80;24.10;;;10.80;66.10;;;;;;5056699;28;20048;-74
2020/12/22 01:52:44;;;;;;;30.77;23.33;;;10.70;66.20;;;;;;5056677;28;20486;-76
2020/12/22 01:55:09;;;;;;;31.85;24.60;;;10.70;66.50;;;;;;5056812;28;20535;-78
2020/12/22 01:57:35;;;;;;;34.78;24.25;;;10.70;66.10;;;;;;5057043;28;20025;-76
2020/12/22 02:00:03;;;;;;;33.08;24.52;;;10.60;66.20;;;;;;5057416;28;20021;-76
2020/12/22 02:02:29;;;;;;;30.98;24.25;;;10.60;66.50;;;;;;5058112;28;20028;-77
2020/12/22 02:04:55;;;;;;;31.30;24.92;;;10.60;66.60;;;;;;5057508;28;20021;-72
2020/12/22 02:07:21;;;;;;;32.88;24.63;;;10.60;66.60;;;;;;5056822;28;20106;-78
2020/12/22 02:09:49;;;;;;;34.47;26.00;;;10.60;66.50;;;;;;5056100;28;20524;-72
2020/12/22 02:12:16;;;;;;;30.85;25.73;;;10.60;67.20;;;;;;5056133;28;20090;-74
2020/12/22 02:14:43;;;;;;;30.73;24.75;;;10.60;66.80;;;;;;5055917;28;20044;-77
2020/12/22 02:17:09;;;;;;;33.85;24.65;;;10.60;66.60;;;;;;5056329;28;20024;-73
2020/12/22 02:19:36;;;;;;;29.83;24.20;;;10.60;66.80;;;;;;5056011;28;20032;-74
2020/12/22 02:22:02;;;;;;;31.77;23.75;;;10.60;66.60;;;;;;5056168;28;20025;-75
2020/12/22 02:24:28;;;;;;;29.75;23.23;;;10.50;66.70;;;;;;5056178;28;20045;-74
2020/12/22 02:26:55;;;;;;;28.73;22.45;;;10.60;66.60;;;;;;5056046;28;20060;-75
2020/12/22 02:29:21;;;;;;;29.27;22.75;;;10.70;66.60;;;;;;5055941;28;20025;-73
2020/12/22 02:31:46;;;;;;;32.50;24.17;;;10.70;66.10;;;;;;5055955;28;20389;-76
2020/12/22 02:34:12;;;;;;;29.67;24.13;;;10.70;66.20;;;;;;5055864;28;20037;-72
2020/12/22 02:36:39;;;;;;;29.88;24.23;;;10.70;66.20;;;;;;5055777;28;20109;-72
2020/12/22 02:39:05;;;;;;;30.15;23.77;;;10.70;66.00;;;;;;5055875;28;20025;-75
2020/12/22 02:41:31;;;;;;;33.13;23.90;;;10.60;65.90;;;;;;5055879;28;20115;-73
2020/12/22 02:43:56;;;;;;;29.42;23.77;;;10.60;66.40;;;;;;5055791;28;20112;-75
2020/12/22 02:46:22;;;;;;;29.73;23.92;;;10.60;66.30;;;;;;5055767;28;20104;-77
2020/12/22 02:48:48;;;;;;;33.13;24.35;;;10.60;66.30;;;;;;5055537;28;20029;-75
2020/12/22 02:51:13;;;;;;;31.23;25.40;;;10.60;66.20;;;;;;5055724;28;20013;-77
2020/12/22 02:53:39;;;;;;;30.98;23.73;;;10.60;66.10;;;;;;5038203;28;20124;-76
2020/12/22 02:56:05;;;;;;;31.80;24.35;;;10.70;66.00;;;;;;5054868;28;20040;-75
2020/12/22 02:58:30;;;;;;;33.38;24.67;;;10.60;66.00;;;;;;5055357;28;20498;-74
2020/12/22 03:00:56;;;;;;;29.60;23.17;;;10.60;65.90;;;;;;5055247;28;20044;-75
2020/12/22 03:03:22;;;;;;;32.65;25.17;;;10.70;66.00;;;;;;5055504;28;20094;-75
2020/12/22 03:05:47;;;;;;;32.50;24.90;;;10.60;66.00;;;;;;5055109;28;20036;-74
2020/12/22 03:08:13;;;;;;;32.03;24.52;;;10.50;66.30;;;;;;5055324;28;20021;-76
2020/12/22 03:10:39;;;;;;;31.98;24.33;;;10.50;66.30;;;;;;5054774;28;20041;-75
2020/12/22 03:13:05;;;;;;;31.13;23.95;;;10.60;66.40;;;;;;5054899;28;20474;-77
2020/12/22 03:15:31;;;;;;;30.98;24.13;;;10.60;65.90;;;;;;5055074;28;20104;-76
2020/12/22 03:17:57;;;;;;;30.73;24.75;;;10.70;65.90;;;;;;5054875;28;20031;-77
2020/12/22 03:20:24;;;;;;;31.85;24.40;;;10.70;65.70;;;;;;5054769;28;20036;-74
2020/12/22 03:22:50;;;;;;;30.05;25.00;;;10.70;65.80;;;;;;5054843;28;20028;-72
2020/12/22 03:25:16;;;;;;;32.03;25.30;;;10.60;65.70;;;;;;5055037;28;20020;-74
2020/12/22 03:27:42;;;;;;;30.23;24.38;;;10.60;65.80;;;;;;5055191;28;20466;-77
2020/12/22 03:30:12;;;;;;;33.72;25.25;;;10.50;65.80;;;;;;5055282;28;20552;-73
2020/12/22 03:32:41;;;;;;;31.65;25.38;;;10.50;66.20;;;;;;5054932;28;20029;-76
2020/12/22 03:35:09;;;;;;;33.55;25.42;;;10.40;66.20;;;;;;5055294;28;20049;-73
2020/12/22 03:37:36;;;;;;;32.17;25.60;;;10.50;66.10;;;;;;5054826;28;20104;-76
2020/12/22 03:40:07;;;;;;;32.60;26.15;;;10.60;65.90;;;;;;5054800;28;20035;-76
2020/12/22 03:42:33;;;;;;;29.52;24.75;;;10.60;65.80;;;;;;5054733;28;20143;-75
2020/12/22 03:44:58;;;;;;;32.42;25.85;;;10.70;65.80;;;;;;5057156;28;20072;-75
2020/12/22 03:47:24;;;;;;;32.92;24.92;;;10.80;65.40;;;;;;5054707;28;20029;-74
2020/12/22 03:49:50;;;;;;;34.00;26.58;;;10.80;65.40;;;;;;5054635;28;20152;-72
2020/12/22 03:52:16;;;;;;;33.15;25.20;;;10.70;65.40;;;;;;5054568;28;20030;-75
2020/12/22 03:54:43;;;;;;;34.33;26.77;;;10.60;65.40;;;;;;5055247;28;20114;-72
2020/12/22 03:57:09;;;;;;;33.00;26.17;;;10.60;65.60;;;;;;5057383;28;20489;-75
2020/12/22 03:59:35;;;;;;;31.80;26.67;;;10.60;65.70;;;;;;5075239;28;20049;-70
2020/12/22 04:02:02;;;;;;;36.35;27.27;;;10.70;65.50;;;;;;5078029;28;20025;-72
2020/12/22 04:04:28;;;;;;;35.60;28.23;;;10.60;65.40;;;;;;5068625;28;20071;-76
2020/12/22 04:06:54;;;;;;;34.45;27.55;;;10.60;65.50;;;;;;5058290;28;20033;-73
2020/12/22 04:09:21;;;;;;;36.22;27.77;;;10.60;65.50;;;;;;5057785;28;20033;-73
2020/12/22 04:11:48;;;;;;;38.50;27.75;;;10.50;65.80;;;;;;5036239;28;20140;-74
2020/12/22 04:14:14;;;;;;;37.55;29.35;;;10.40;65.70;;;;;;5036454;28;20056;-74
2020/12/22 04:16:40;;;;;;;37.35;29.05;;;10.50;66.00;;;;;;5054100;28;20052;-73
2020/12/22 04:19:07;;;;;;;36.28;29.25;;;10.30;65.90;;;;;;5036099;28;20064;-73
2020/12/22 04:21:33;;;;;;;36.95;29.50;;;10.30;66.00;;;;;;5036257;28;20370;-75
2020/12/22 04:23:59;;;;;;;38.78;30.10;;;10.30;66.30;;;;;;5053574;28;20029;-75
2020/12/22 04:26:26;;;;;;;38.60;29.73;;;10.30;66.30;;;;;;5054174;28;20032;-74
2020/12/22 04:28:52;;;;;;;37.17;29.83;;;10.30;66.20;;;;;;5035890;28;20039;-78
2020/12/22 04:31:21;;;;;;;38.20;30.17;;;10.30;66.40;;;;;;5053628;28;20017;-77
2020/12/22 04:33:51;;;;;;;39.72;30.08;;;10.10;66.30;;;;;;5053527;28;20040;-74
2020/12/22 04:36:17;;;;;;;39.70;28.35;;;10.10;66.80;;;;;;5053759;28;20025;-75
2020/12/22 04:38:43;;;;;;;39.45;29.25;;;10.10;66.80;;;;;;5053398;28;20034;-75
2020/12/22 04:41:16;;;;;;;34.67;27.27;;;10.10;67.00;;;;;;5053731;28;20021;-76
2020/12/22 04:43:43;;;;;;;37.33;28.60;;;10.10;67.00;;;;;;5053508;28;20027;-77
2020/12/22 04:46:09;;;;;;;38.00;29.58;;;9.90;68.00;;;;;;5053554;28;20504;-77
2020/12/22 04:48:37;;;;;;;31.73;26.80;;;9.90;68.80;;;;;;5053558;28;20124;-76
2020/12/22 04:51:06;;;;;;;34.78;27.92;;;9.80;68.60;;;;;;5053333;28;20120;-77
2020/12/22 04:53:32;;;;;;;32.88;26.17;;;9.90;68.90;;;;;;5053676;28;20119;-76
2020/12/22 04:56:00;;;;;;;34.47;24.98;;;9.80;68.70;;;;;;5053534;28;20032;-78
2020/12/22 04:58:27;;;;;;;33.75;26.13;;;9.90;69.00;;;;;;5053515;28;20025;-76
2020/12/22 05:00:53;;;;;;;31.70;23.65;;;9.90;68.60;;;;;;5053299;28;20378;-76
2020/12/22 05:03:21;;;;;;;33.97;24.95;;;9.90;68.50;;;;;;5053733;28;20036;-74
2020/12/22 05:05:47;;;;;;;29.90;24.75;;;9.90;68.60;;;;;;5053317;28;20035;-77
2020/12/22 05:08:12;;;;;;;31.70;24.40;;;9.80;68.50;;;;;;5053193;28;20063;-76
2020/12/22 05:10:42;;;;;;;35.53;25.60;;;9.90;68.60;;;;;;5052712;28;20041;-78
2020/12/22 05:13:12;;;;;;;31.98;25.00;;;9.80;68.70;;;;;;5053108;28;20064;-77
2020/12/22 05:15:42;;;;;;;31.98;24.58;;;9.80;68.50;;;;;;5053323;28;20028;-77
2020/12/22 05:18:09;;;;;;;33.33;25.38;;;9.70;69.00;;;;;;5054378;28;20025;-74
2020/12/22 05:20:34;;;;;;;30.88;24.60;;;9.60;69.00;;;;;;5057170;28;20064;-77
2020/12/22 05:23:02;;;;;;;34.83;25.15;;;9.50;69.40;;;;;;5057458;28;20029;-76
2020/12/22 05:25:28;;;;;;;33.80;26.00;;;9.50;69.30;;;;;;5057366;28;20020;-77
2020/12/22 05:27:56;;;;;;;31.58;24.15;;;9.60;69.20;;;;;;5057128;28;20033;-77
2020/12/22 05:30:22;;;;;;;32.10;26.27;;;9.60;69.00;;;;;;5056759;28;20029;-78
2020/12/22 05:32:52;;;;;;;32.33;24.70;;;9.50;69.20;;;;;;5056845;28;20168;-76
2020/12/22 05:35:20;;;;;;;31.98;24.48;;;9.40;69.40;;;;;;5057086;28;20029;-74
2020/12/22 05:37:47;;;;;;;34.35;25.17;;;9.50;69.60;;;;;;5056980;28;20458;-78
2020/12/22 05:40:14;;;;;;;36.63;25.42;;;9.50;69.60;;;;;;5056749;28;20083;-76
2020/12/22 05:42:41;;;;;;;40.75;24.48;;;9.50;69.40;;;;;;5056894;28;20070;-78
2020/12/22 05:45:08;;;;;;;31.20;24.98;;;9.60;69.50;;;;;;5056970;28;20079;-77
2020/12/22 05:47:35;;;;;;;35.17;25.52;;;9.60;69.50;;;;;;5056782;28;20053;-77
2020/12/22 05:50:02;;;;;;;34.03;24.83;;;9.70;69.40;;;;;;5056555;28;20028;-77
2020/12/22 05:52:30;;;;;;;33.15;25.17;;;9.60;69.10;;;;;;5056618;28;20025;-77
2020/12/22 05:54:56;;;;;;;33.20;25.58;;;9.60;69.30;;;;;;5056655;28;20032;-77
2020/12/22 05:57:27;;;;;;;33.75;24.67;;;9.60;69.40;;;;;;5056557;28;20056;-72
2020/12/22 05:59:53;;;;;;;35.10;25.90;;;9.70;69.40;;;;;;5056440;28;20104;-77
2020/12/22 06:02:48;;;;;;;30.17;24.38;;;9.70;69.10;;;;;;5056392;28;20025;-75
2020/12/22 06:05:13;;;;;;;31.88;25.52;;;9.60;69.00;;;;;;5054909;28;20068;-75
2020/12/22 06:07:40;;;;;;;31.95;25.20;;;9.60;69.10;;;;;;5057675;28;20386;-75
2020/12/22 06:10:05;;;;;;;29.08;25.08;;;9.60;69.20;;;;;;5056912;28;20049;-78
2020/12/22 06:12:37;;;;;;;30.50;24.25;;;9.70;69.30;;;;;;5056615;28;20112;-77
2020/12/22 06:15:03;;;;;;;30.23;24.83;;;9.60;68.70;;;;;;5057038;28;20052;-77
2020/12/22 06:17:30;;;;;;;34.30;25.70;;;9.60;69.00;;;;;;5038503;28;20385;-75
2020/12/22 06:19:56;;;;;;;32.67;26.42;;;9.40;69.80;;;;;;5056036;28;20086;-75
2020/12/22 06:22:22;;;;;;;34.65;26.70;;;9.40;69.50;;;;;;5056058;28;20021;-78
2020/12/22 06:24:52;;;;;;;35.20;25.98;;;9.40;69.60;;;;;;5055845;28;20055;-75
2020/12/22 06:27:18;;;;;;;31.65;25.42;;;9.50;69.70;;;;;;5055985;28;20029;-78
2020/12/22 06:29:45;;;;;;;34.10;24.88;;;9.60;69.50;;;;;;5054971;28;20055;-75
2020/12/22 06:32:23;;;;;;;36.75;26.70;;;9.60;69.10;;;;;;5055701;28;20082;-77
2020/12/22 06:34:50;;;;;;;31.30;24.73;;;9.50;69.20;;;;;;5055322;28;20089;-75
2020/12/22 06:37:16;;;;;;;33.75;26.08;;;9.50;69.30;;;;;;5038118;28;20083;-78
2020/12/22 06:39:49;;;;;;;33.88;26.20;;;9.50;69.40;;;;;;5055421;28;20123;-77
2020/12/22 06:42:41;;;;;;;34.45;25.10;;;9.60;69.40;;;;;;5055873;28;20486;-76
2020/12/22 06:45:28;;;;;;;30.92;24.48;;;9.70;68.80;;;;;;5048562;28;20041;-76
2020/12/22 06:47:55;;;;;;;32.28;25.60;;;9.70;69.10;;;;;;5055268;28;20075;-78
2020/12/22 06:50:55;;;;;;;36.20;26.63;;;9.80;69.00;;;;;;5055478;28;20124;-76
2020/12/22 06:53:41;;;;;;;34.42;24.95;;;9.90;68.80;;;;;;4994020;28;20034;-74
2020/12/22 06:56:07;;;;;;;33.72;26.35;;;10.00;67.70;;;;;;5051169;28;20116;-75
2020/12/22 06:58:44;;;;;;;38.42;26.10;;;10.00;67.30;;;;;;5055449;28;20048;-73
2020/12/22 07:01:32;;;;;;;34.85;26.70;;;10.00;66.90;;;;;;5055273;28;20108;-78
2020/12/22 07:04:17;;;;;;;34.75;25.13;;;10.00;67.10;;;;;;5055610;28;20029;-74
2020/12/22 07:06:46;;;;;;;33.13;23.88;;;10.00;67.10;;;;;;5055223;28;20127;-76
2020/12/22 07:09:35;;;;;;;30.65;23.23;;;9.90;67.90;;;;;;5055261;28;20429;-76
2020/12/22 07:12:11;;;;;;;28.27;22.90;;;10.10;67.00;;;;;;5037451;28;20068;-78
2020/12/22 07:14:48;;;;;;;31.02;22.98;;;10.00;66.90;;;;;;5055408;28;20048;-70
2020/12/22 07:17:19;;;;;;;31.95;22.80;;;10.00;66.60;;;;;;5054642;28;20036;-73
2020/12/22 07:19:47;;;;;;;28.80;22.73;;;10.10;67.10;;;;;;5054745;28;20446;-73
2020/12/22 07:22:17;;;;;;;32.83;22.02;;;10.20;66.90;;;;;;5054794;28;20095;-71
2020/12/22 07:24:43;;;;;;;35.55;23.55;;;10.20;66.50;;;;;;5054643;28;20021;-75
2020/12/22 07:27:10;;;;;;;31.42;24.42;;;10.20;66.40;;;;;;5054570;28;20021;-78
2020/12/22 07:29:40;;;;;;;34.22;24.45;;;10.20;66.90;;;;;;5054680;28;20063;-76
2020/12/22 07:32:06;;;;;;;30.23;24.02;;;10.20;66.60;;;;;;5055063;28;20083;-76
2020/12/22 07:34:33;;;;;;;32.97;24.20;;;10.20;67.20;;;;;;5054499;28;20044;-70
2020/12/22 07:37:12;;;;;;;39.80;24.70;;;10.20;66.60;;;;;;5054341;28;20095;-77
2020/12/22 07:39:39;;;;;;;31.48;23.95;;;10.20;66.70;;;;;;5054326;28;20051;-77
2020/12/22 07:42:21;;;;;;;32.05;23.58;;;10.20;67.00;;;;;;5054660;28;20032;-77
2020/12/22 07:44:48;;;;;;;32.70;23.42;;;10.20;67.00;;;;;;5054276;28;20474;-74
2020/12/22 07:47:14;;;;;;;31.33;23.30;;;10.20;66.80;;;;;;5036546;28;20041;-75
2020/12/22 07:49:42;;;;;;;29.33;22.75;;;10.20;66.50;;;;;;5054360;28;20515;-76
2020/12/22 07:52:07;;;;;;;32.03;23.83;;;10.20;66.60;;;;;;5054853;28;20044;-75
2020/12/22 07:54:35;;;;;;;39.05;25.02;;;10.30;66.70;;;;;;5037610;28;20033;-77
2020/12/22 07:57:00;;;;;;;41.38;23.92;;;10.40;66.30;;;;;;5055027;28;20029;-75
2020/12/22 07:59:27;;;;;;;40.58;23.42;;;10.40;66.30;;;;;;5036181;28;20040;-74
2020/12/22 08:01:54;;;;;;;36.45;23.98;;;10.40;66.20;;;;;;5054080;28;20017;-77
2020/12/22 08:04:21;;;;;;;32.28;23.45;;;10.40;66.00;;;;;;5053896;28;20482;-79
2020/12/22 08:07:02;;;;;;;29.85;23.05;;;10.50;65.70;;;;;;5053497;28;20496;-76
2020/12/22 08:09:38;;;;;;;32.53;21.50;;;10.50;65.80;;;;;;5053818;28;20600;-77
2020/12/22 08:12:09;;;;;;;37.53;23.85;;;10.40;65.50;;;;;;5054388;28;20037;-74
2020/12/22 08:14:40;;;;;;;31.67;22.85;;;10.40;65.80;;;;;;5053720;28;20053;-73
2020/12/22 08:17:16;;;;;;;36.80;22.15;;;10.40;65.90;;;;;;5054297;28;20489;-72
2020/12/22 08:19:43;;;;;;;39.88;22.65;;;10.50;65.90;;;;;;5054050;28;20114;-78
2020/12/22 08:22:14;;;;;;;31.00;22.73;;;10.50;65.50;;;;;;5053510;28;20032;-79
2020/12/22 08:24:40;;;;;;;36.40;22.88;;;10.60;65.90;;;;;;5053967;28;20160;-79
2020/12/22 08:27:07;;;;;;;29.13;23.50;;;10.70;65.60;;;;;;5053799;28;20029;-73
2020/12/22 08:29:34;;;;;;;37.50;24.73;;;10.70;65.20;;;;;;5053475;28;20104;-76
2020/12/22 08:32:01;;;;;;;31.17;23.90;;;10.80;65.40;;;;;;5053462;28;20036;-75
2020/12/22 08:34:28;;;;;;;33.30;23.77;;;10.90;65.40;;;;;;5035678;28;20033;-76
2020/12/22 08:36:54;;;;;;;33.30;24.38;;;10.90;65.00;;;;;;5053406;28;20033;-78
2020/12/22 08:39:27;;;;;;;33.28;25.65;;;10.90;65.20;;;;;;5053274;28;20028;-77
2020/12/22 08:41:55;;;;;;;29.80;24.23;;;10.90;65.30;;;;;;5053075;28;20369;-73
2020/12/22 08:44:22;;;;;;;31.38;24.60;;;10.90;65.40;;;;;;5053239;28;20061;-77
2020/12/22 08:46:48;;;;;;;30.50;23.88;;;11.00;65.40;;;;;;5053210;28;20052;-78
2020/12/22 08:49:15;;;;;;;35.38;24.17;;;11.10;65.10;;;;;;5053286;28;20061;-75
2020/12/22 08:51:42;;;;;;;29.13;23.45;;;11.20;64.60;;;;;;5053423;28;20108;-77
2020/12/22 08:54:08;;;;;;;33.67;24.20;;;11.20;64.40;;;;;;5052607;28;20033;-77
2020/12/22 08:56:34;;;;;;;29.80;24.65;;;11.30;64.30;;;;;;5035465;28;20021;-79
2020/12/22 08:59:02;;;;;;;35.50;25.17;;;11.30;64.30;;;;;;5053042;28;20025;-77
2020/12/22 09:01:51;;;;;;;35.92;25.60;;;11.50;64.30;;;;;;5053225;28;20027;-79
2020/12/22 09:04:17;;;;;;;42.60;30.15;;;11.50;64.50;;;;;;5052874;28;20025;-76
2020/12/22 09:06:45;;;;;;;47.58;33.95;;;11.50;64.10;;;;;;5053004;28;20186;-77
2020/12/22 09:09:31;;;;;;;44.33;30.23;;;11.70;63.90;;;;;;5052836;28;20062;-78
2020/12/22 09:12:11;;;;;;;37.88;27.42;;;11.70;63.70;;;;;;5052527;28;20037;-77
2020/12/22 09:14:45;;;;;;;34.42;25.02;;;11.80;64.00;;;;;;5052966;28;20033;-80
2020/12/22 09:17:13;;;;;;;40.80;26.38;;;11.90;63.40;;;;;;5052626;28;20021;-78
2020/12/22 09:19:52;;;;;;;37.42;25.88;;;11.80;63.20;;;;;;5052599;28;20025;-79
2020/12/22 09:22:31;;;;;;;33.85;25.73;;;11.90;63.20;;;;;;5052484;28;20021;-77
2020/12/22 09:24:59;;;;;;;34.00;25.15;;;12.00;63.20;;;;;;5052810;28;20489;-77
2020/12/22 09:27:36;;;;;;;29.58;24.98;;;11.90;63.10;;;;;;5052853;28;20412;-78
2020/12/22 09:30:13;;;;;;;35.78;24.38;;;12.00;63.80;;;;;;5052610;28;20025;-79
2020/12/22 09:32:43;;;;;;;32.28;24.05;;;12.10;63.20;;;;;;5034528;28;20040;-74
2020/12/22 09:35:09;;;;;;;31.00;22.98;;;12.00;63.10;;;;;;5034896;28;20041;-79
2020/12/22 09:37:35;;;;;;;37.30;23.20;;;12.00;63.10;;;;;;5034742;28;20025;-79
2020/12/22 09:40:01;;;;;;;35.40;23.45;;;12.10;63.30;;;;;;5052510;28;20033;-76
2020/12/22 09:42:27;;;;;;;29.92;22.65;;;12.10;62.80;;;;;;5052582;28;20021;-77
2020/12/22 09:44:53;;;;;;;36.22;23.10;;;12.10;63.00;;;;;;5052397;28;20037;-76
2020/12/22 09:47:20;;;;;;;40.17;22.17;;;12.10;63.00;;;;;;5052608;28;20558;-79
2020/12/22 09:49:46;;;;;;;24.98;20.15;;;12.20;63.10;;;;;;5052599;28;20025;-78
2020/12/22 09:52:12;;;;;;;31.73;21.20;;;12.10;63.00;;;;;;5052269;28;20083;-79
2020/12/22 09:54:38;;;;;;;27.27;19.60;;;12.10;63.10;;;;;;5052656;28;20059;-77
2020/12/22 09:57:06;;;;;;;26.02;19.48;;;12.10;62.90;;;;;;5052562;28;20374;-79
2020/12/22 09:59:32;;;;;;;27.77;19.58;;;12.10;63.10;;;;;;5052735;28;20032;-78
2020/12/22 10:01:58;;;;;;;30.23;22.25;;;12.20;63.10;;;;;;5052359;28;20021;-79
2020/12/22 10:04:25;;;;;;;31.98;23.02;;;12.40;62.60;;;;;;5052373;28;20036;-75
2020/12/22 10:06:51;;;;;;;30.67;22.70;;;12.50;62.40;;;;;;5056355;28;20051;-75
2020/12/22 10:09:17;;;;;;;31.52;21.50;;;12.60;62.30;;;;;;5055955;28;20380;-78
2020/12/22 10:11:44;;;;;;;33.45;21.92;;;12.60;62.10;;;;;;5055673;28;20045;-76
2020/12/22 10:14:10;;;;;;;29.85;22.98;;;12.60;62.10;;;;;;5056110;28;20049;-79
2020/12/22 10:16:36;;;;;;;37.38;22.05;;;12.60;62.00;;;;;;5057072;28;20106;-77
2020/12/22 10:19:03;;;;;;;27.50;20.48;;;12.70;61.90;;;;;;5057384;28;20029;-76
2020/12/22 10:21:29;;;;;;;29.95;21.27;;;12.70;61.80;;;;;;5056963;28;20027;-76
2020/12/22 10:24:04;;;;;;;29.27;21.92;;;12.80;62.00;;;;;;5038949;28;20056;-75
2020/12/22 10:26:31;;;;;;;29.98;21.13;;;12.90;62.10;;;;;;5055821;28;20100;-71
2020/12/22 10:28:57;;;;;;;32.88;22.35;;;13.00;61.60;;;;;;5056078;28;20042;-77
2020/12/22 10:31:25;;;;;;;33.38;23.58;;;13.00;61.70;;;;;;5056192;28;20520;-75
2020/12/22 10:33:56;;;;;;;34.58;23.17;;;13.00;61.40;;;;;;5055886;28;20415;-80
2020/12/22 10:36:22;;;;;;;42.50;32.30;;;13.00;61.60;;;;;;5055790;28;20108;-74
2020/12/22 10:38:51;;;;;;;42.08;30.90;;;13.00;61.50;;;;;;5055755;28;20355;-74
2020/12/22 10:41:17;;;;;;;31.25;24.42;;;13.10;61.50;;;;;;5055542;28;20031;-73
2020/12/22 10:43:43;;;;;;;33.03;25.23;;;13.20;61.70;;;;;;5055786;28;20029;-74
2020/12/22 10:46:09;;;;;;;29.92;23.52;;;13.30;61.50;;;;;;5037434;28;20037;-73
2020/12/22 10:48:35;;;;;;;32.88;23.65;;;13.30;61.30;;;;;;5055189;28;20090;-74
2020/12/22 10:51:01;;;;;;;35.15;25.02;;;13.40;61.30;;;;;;5055521;28;20057;-77
2020/12/22 10:53:27;;;;;;;32.55;24.63;;;13.40;61.30;;;;;;5055210;28;20032;-71
2020/12/22 10:55:54;;;;;;;37.67;25.17;;;13.40;61.40;;;;;;5055178;28;20449;-78
2020/12/22 10:58:21;;;;;;;36.85;25.58;;;13.30;61.30;;;;;;5055303;28;20032;-77
2020/12/22 11:00:48;;;;;;;36.92;25.60;;;13.30;61.70;;;;;;5055183;28;20075;-80
2020/12/22 11:03:18;;;;;;;51.95;26.42;;;13.30;61.60;;;;;;5055870;28;20082;-80
2020/12/22 11:06:04;;;;;;;35.15;24.63;;;13.10;62.20;;;;;;5055323;28;20155;-77
2020/12/22 11:08:30;;;;;;;33.95;25.90;;;13.10;62.00;;;;;;5055522;28;20066;-80
2020/12/22 11:10:56;;;;;;;34.45;25.17;;;13.10;61.90;;;;;;5054841;28;20056;-79
2020/12/22 11:13:22;;;;;;;30.90;24.40;;;13.10;62.10;;;;;;5054956;28;20029;-74
2020/12/22 11:15:48;;;;;;;36.88;27.00;;;13.10;62.10;;;;;;5054942;28;20390;-79
2020/12/22 11:18:14;;;;;;;35.47;27.40;;;13.20;62.00;;;;;;5055168;28;20017;-72
2020/12/22 11:20:40;;;;;;;37.67;28.23;;;13.20;62.20;;;;;;5055017;28;20094;-78
2020/12/22 11:23:06;;;;;;;50.38;29.02;;;13.20;62.00;;;;;;5020620;28;20028;-73
2020/12/22 11:25:32;;;;;;;32.55;27.48;;;13.30;61.90;;;;;;5055072;28;20086;-81
2020/12/22 11:27:57;;;;;;;36.70;27.88;;;13.30;61.90;;;;;;5054939;28;20029;-78
2020/12/22 11:30:24;;;;;;;48.38;28.23;;;13.40;62.00;;;;;;5054557;28;20021;-78
2020/12/22 11:32:50;;;;;;;40.63;28.92;;;13.40;61.80;;;;;;5055166;28;20059;-74
2020/12/22 11:35:16;;;;;;;51.90;30.75;;;13.50;62.00;;;;;;5054789;28;20064;-78
2020/12/22 11:37:42;;;;;;;72.30;49.38;;;13.60;61.70;;;;;;5054735;28;20067;-80
2020/12/22 11:40:08;;;;;;;100.97;71.05;;;13.70;62.30;;;;;;5054338;28;20025;-77
2020/12/22 11:42:36;;;;;;;59.97;39.38;;;13.70;61.60;;;;;;5054281;28;20057;-76
2020/12/22 11:45:04;;;;;;;51.13;31.83;;;13.80;61.60;;;;;;5054544;28;20025;-76
2020/12/22 11:47:29;;;;;;;39.95;31.02;;;13.90;61.30;;;;;;5054649;28;20432;-77
2020/12/22 11:49:56;;;;;;;38.53;29.15;;;13.90;61.50;;;;;;5054429;28;20028;-75
2020/12/22 11:52:22;;;;;;;40.70;28.60;;;14.00;61.50;;;;;;5054229;28;20021;-78
2020/12/22 11:54:48;;;;;;;39.60;29.58;;;14.10;61.40;;;;;;5054638;28;20036;-78
2020/12/22 11:57:13;;;;;;;37.30;28.05;;;14.10;61.20;;;;;;5036718;28;20090;-75
2020/12/22 11:59:39;;;;;;;40.60;27.88;;;14.20;61.30;;;;;;5053952;28;20485;-74
2020/12/22 12:02:05;;;;;;;38.83;29.05;;;14.20;61.30;;;;;;5054433;28;20385;-77
2020/12/22 12:04:32;;;;;;;39.20;27.70;;;14.20;60.90;;;;;;5054577;28;20105;-76
2020/12/22 12:06:58;;;;;;;41.58;28.17;;;14.30;61.20;;;;;;5054427;28;20371;-79
2020/12/22 12:09:24;;;;;;;48.47;31.02;;;14.30;61.10;;;;;;5053798;28;20504;-78
2020/12/22 12:11:50;;;;;;;37.35;28.85;;;14.30;60.80;;;;;;5053847;28;20081;-78
2020/12/22 12:14:17;;;;;;;41.97;28.38;;;14.40;61.10;;;;;;5053758;28;20059;-79
2020/12/22 12:16:49;;;;;;;39.28;30.38;;;14.50;61.00;;;;;;5054153;28;20020;-75
2020/12/22 12:19:16;;;;;;;44.05;30.15;;;14.50;60.80;;;;;;5053868;28;20036;-74
2020/12/22 12:21:42;;;;;;;34.67;28.05;;;14.50;60.80;;;;;;5054169;28;20107;-76
2020/12/22 12:24:08;;;;;;;46.97;30.13;;;14.60;60.80;;;;;;5054187;28;20116;-74
2020/12/22 12:26:35;;;;;;;43.35;31.33;;;14.60;60.60;;;;;;5053800;28;20028;-76
2020/12/22 12:29:02;;;;;;;41.20;29.60;;;14.70;60.50;;;;;;5053590;28;20077;-74
2020/12/22 12:31:30;;;;;;;51.85;29.63;;;15.00;60.40;;;;;;5054791;28;20009;-73